createdAt,value
2022-11-29T00:01:21.233Z,78.15
2022-11-29T00:03:49.189Z,78.45
2022-11-29T00:06:20.195Z,78.98
2022-11-29T00:08:48.322Z,79.32
2022-11-29T00:11:38.133Z,79.68
2022-11-29T00:14:06.573Z,79.06
2022-11-29T00:16:34.482Z,78.23
2022-11-29T00:19:02.868Z,78.39
2022-11-29T00:21:31.959Z,78.39
2022-11-29T00:23:59.752Z,78.49
2022-11-29T00:26:27.508Z,77.84
2022-11-29T00:28:55.785Z,77.88
2022-11-29T00:31:26.111Z,77.45
2022-11-29T00:33:54.193Z,77.18
2022-11-29T00:36:21.968Z,77.85
2022-11-29T00:38:51.192Z,80.65
2022-11-29T00:41:18.994Z,81.65
2022-11-29T00:43:46.933Z,81.25
2022-11-29T00:46:14.733Z,80.15
2022-11-29T00:48:42.572Z,80.95
2022-11-29T00:51:10.833Z,80.52
2022-11-29T00:53:38.900Z,79.42
2022-11-29T00:56:09.181Z,78.48
2022-11-29T00:58:37.445Z,78.00
2022-11-29T01:01:05.715Z,77.22
2022-11-29T01:03:33.743Z,77.04
2022-11-29T01:06:02.277Z,76.79
2022-11-29T01:08:30.241Z,76.74
2022-11-29T01:11:06.309Z,78.96
2022-11-29T01:13:36.034Z,78.94
2022-11-29T01:16:04.894Z,78.07
2022-11-29T01:18:33.273Z,77.52
2022-11-29T01:21:02.937Z,77.14
2022-11-29T01:23:31.203Z,77.28
2022-11-29T01:26:00.839Z,76.33
2022-11-29T01:28:29.389Z,76.18
2022-11-29T01:30:58.565Z,75.85
2022-11-29T01:33:26.426Z,75.58
2022-11-29T01:35:55.588Z,74.95
2022-11-29T01:38:24.233Z,74.88
2022-11-29T01:40:59.927Z,74.70
2022-11-29T01:43:27.868Z,76.28
2022-11-29T01:45:56.041Z,77.17
2022-11-29T01:48:26.755Z,77.50
2022-11-29T01:50:55.496Z,76.79
2022-11-29T01:53:23.332Z,75.73
2022-11-29T01:55:54.286Z,75.12
2022-11-29T01:58:22.585Z,75.12
2022-11-29T02:00:50.655Z,75.11
2022-11-29T02:03:19.268Z,75.86
2022-11-29T02:05:50.365Z,75.90
2022-11-29T02:08:22.878Z,75.51
2022-11-29T02:11:01.798Z,75.31
2022-11-29T02:13:34.935Z,74.93
2022-11-29T02:16:07.323Z,74.64
2022-11-29T02:18:43.932Z,74.59
2022-11-29T02:21:30.675Z,74.92
2022-11-29T02:24:12.634Z,74.55
2022-11-29T02:27:00.051Z,75.62
2022-11-29T02:29:39.307Z,75.27
2022-11-29T02:32:49.999Z,75.42
2022-11-29T02:35:31.626Z,74.88
2022-11-29T02:38:18.135Z,74.82
2022-11-29T02:41:22.288Z,75.33
2022-11-29T02:44:05.366Z,76.15
2022-11-29T02:46:48.985Z,75.29
2022-11-29T02:49:28.167Z,75.06
2022-11-29T02:52:00.233Z,75.49
2022-11-29T02:54:31.508Z,75.04
2022-11-29T02:57:02.571Z,73.97
2022-11-29T02:59:43.919Z,73.50
2022-11-29T03:02:19.496Z,73.36
2022-11-29T03:04:51.770Z,73.69
2022-11-29T03:07:25.935Z,73.11
2022-11-29T03:09:57.568Z,73.02
2022-11-29T03:12:30.509Z,73.59
2022-11-29T03:15:02.950Z,74.29
2022-11-29T03:17:35.344Z,74.29
2022-11-29T03:20:23.226Z,74.72
2022-11-29T03:23:04.200Z,74.52
2022-11-29T03:25:37.361Z,75.01
2022-11-29T03:28:08.479Z,75.18
2022-11-29T03:30:38.299Z,75.46
2022-11-29T03:33:10.152Z,75.35
2022-11-29T03:35:43.688Z,75.63
2022-11-29T03:38:18.154Z,75.88
2022-11-29T03:40:50.454Z,76.73
2022-11-29T03:43:22.353Z,76.86
2022-11-29T03:45:55.089Z,76.57
2022-11-29T03:48:29.115Z,75.92
2022-11-29T03:51:01.304Z,75.84
2022-11-29T03:53:34.265Z,76.03
2022-11-29T03:56:03.833Z,76.64
2022-11-29T03:58:40.286Z,76.83
2022-11-29T04:01:29.764Z,76.88
2022-11-29T04:04:13.808Z,77.25
2022-11-29T04:06:52.311Z,76.58
2022-11-29T04:09:36.242Z,76.55
2022-11-29T04:12:36.498Z,76.28
2022-11-29T04:15:27.550Z,77.61
2022-11-29T04:18:29.260Z,77.61
2022-11-29T04:21:20.457Z,76.96
2022-11-29T04:24:00.587Z,76.12
2022-11-29T04:27:00.095Z,76.08
2022-11-29T04:29:49.843Z,76.16
2022-11-29T04:32:37.410Z,76.16
2022-11-29T04:35:19.689Z,75.92
2022-11-29T04:38:21.053Z,75.80
2022-11-29T04:41:01.780Z,75.77
2022-11-29T04:43:43.274Z,75.76
2022-11-29T04:46:29.692Z,75.41
2022-11-29T04:49:11.142Z,75.09
2022-11-29T04:54:42.538Z,73.50
2022-11-29T04:57:14.055Z,73.13
2022-11-29T04:59:46.020Z,72.91
2022-11-29T05:02:23.713Z,72.44
2022-11-29T05:04:57.071Z,72.95
2022-11-29T05:07:30.777Z,73.32
2022-11-29T05:10:06.908Z,73.42
2022-11-29T05:12:40.779Z,73.00
2022-11-29T05:15:33.554Z,72.85
2022-11-29T05:18:07.835Z,72.49
2022-11-29T05:20:41.687Z,72.38
2022-11-29T05:23:24.210Z,72.62
2022-11-29T05:25:57.521Z,74.83
2022-11-29T05:28:34.820Z,74.27
2022-11-29T05:31:15.650Z,73.21
2022-11-29T05:34:18.668Z,72.47
2022-11-29T05:36:52.317Z,71.56
2022-11-29T05:39:37.412Z,71.46
2022-11-29T05:42:17.920Z,71.97
2022-11-29T05:44:47.456Z,71.67
2022-11-29T05:47:21.060Z,71.61
2022-11-29T05:49:56.895Z,71.15
2022-11-29T05:52:26.291Z,71.31
2022-11-29T05:55:18.185Z,71.75
2022-11-29T05:57:52.717Z,71.55
2022-11-29T06:00:21.383Z,71.29
2022-11-29T06:02:55.327Z,72.20
2022-11-29T06:05:27.052Z,71.61
2022-11-29T06:07:57.608Z,71.65
2022-11-29T06:10:28.424Z,71.86
2022-11-29T06:13:07.668Z,71.48
2022-11-29T06:15:59.077Z,71.29
2022-11-29T06:18:47.689Z,71.03
2022-11-29T06:21:22.593Z,70.97
2022-11-29T06:24:01.497Z,71.10
2022-11-29T06:26:46.091Z,71.63
2022-11-29T06:29:25.216Z,71.47
2022-11-29T06:31:56.272Z,70.83
2022-11-29T06:34:31.094Z,70.65
2022-11-29T06:37:03.541Z,71.54
2022-11-29T06:39:32.039Z,71.08
2022-11-29T06:41:59.750Z,71.02
2022-11-29T06:44:29.548Z,71.27
2022-11-29T06:47:02.017Z,71.43
2022-11-29T06:49:31.973Z,71.12
2022-11-29T06:52:08.011Z,71.29
2022-11-29T06:54:50.990Z,71.44
2022-11-29T06:57:23.403Z,71.54
2022-11-29T07:00:01.526Z,71.42
2022-11-29T07:02:39.655Z,71.45
2022-11-29T07:05:15.280Z,70.88
2022-11-29T07:07:43.508Z,69.99
2022-11-29T07:10:17.077Z,69.37
2022-11-29T07:12:45.766Z,70.98
2022-11-29T07:15:19.970Z,71.68
2022-11-29T07:17:59.899Z,71.51
2022-11-29T07:20:31.832Z,70.81
2022-11-29T07:23:04.277Z,70.22
2022-11-29T07:25:40.008Z,69.94
2022-11-29T07:28:18.635Z,69.37
2022-11-29T07:30:53.469Z,69.10
2022-11-29T07:33:25.009Z,68.75
2022-11-29T07:35:57.816Z,68.70
2022-11-29T07:38:30.627Z,68.57
2022-11-29T07:41:01.365Z,68.43
2022-11-29T07:43:40.132Z,68.47
2022-11-29T07:46:09.344Z,68.19
2022-11-29T07:48:37.158Z,68.59
2022-11-29T07:51:05.093Z,68.70
2022-11-29T07:54:04.707Z,68.55
2022-11-29T07:56:32.717Z,69.36
2022-11-29T07:59:00.530Z,69.36
2022-11-29T08:01:29.793Z,69.32
2022-11-29T08:03:57.614Z,68.92
2022-11-29T08:06:26.426Z,68.57
2022-11-29T08:08:54.162Z,68.74
2022-11-29T08:11:21.936Z,68.14
2022-11-29T08:13:49.740Z,67.63
2022-11-29T08:16:18.580Z,67.21
2022-11-29T08:18:48.414Z,67.23
2022-11-29T08:21:18.020Z,66.95
2022-11-29T08:23:45.824Z,67.21
2022-11-29T08:26:13.966Z,67.28
2022-11-29T08:28:41.745Z,67.44
2022-11-29T08:31:12.053Z,66.97
2022-11-29T08:33:42.686Z,68.06
2022-11-29T08:36:13.683Z,69.06
2022-11-29T08:38:41.489Z,70.15
2022-11-29T08:41:12.022Z,69.16
2022-11-29T08:43:39.947Z,68.78
2022-11-29T08:46:07.820Z,67.61
2022-11-29T08:48:36.892Z,68.02
2022-11-29T08:51:06.057Z,67.48
2022-11-29T08:53:46.079Z,67.17
2022-11-29T08:57:04.339Z,66.68
2022-11-29T08:59:03.176Z,66.56
2022-11-29T09:01:31.073Z,66.20
2022-11-29T09:04:02.820Z,66.59
2022-11-29T09:06:31.980Z,67.08
2022-11-29T09:09:01.922Z,66.25
2022-11-29T09:11:30.820Z,65.95
2022-11-29T09:14:00.141Z,65.66
2022-11-29T09:16:29.716Z,65.36
2022-11-29T09:18:57.668Z,65.52
2022-11-29T09:21:26.794Z,65.95
2022-11-29T09:23:58.762Z,65.69
2022-11-29T09:26:30.046Z,65.25
2022-11-29T09:29:01.122Z,64.59
2022-11-29T09:31:29.463Z,63.88
2022-11-29T09:33:57.719Z,64.33
2022-11-29T09:36:28.919Z,63.89
2022-11-29T09:38:57.506Z,64.00
2022-11-29T09:41:49.052Z,63.41
2022-11-29T09:44:21.070Z,63.45
2022-11-29T09:46:58.548Z,64.74
2022-11-29T09:49:44.506Z,64.58
2022-11-29T09:52:17.627Z,64.16
2022-11-29T09:54:49.972Z,64.63
2022-11-29T09:57:21.795Z,64.42
2022-11-29T09:59:50.977Z,64.17
2022-11-29T10:02:22.363Z,64.16
2022-11-29T10:04:54.072Z,63.75
2022-11-29T10:07:26.429Z,62.94
2022-11-29T10:09:56.516Z,63.32
2022-11-29T10:12:31.928Z,63.57
2022-11-29T10:15:04.742Z,62.63
2022-11-29T10:17:36.006Z,61.83
2022-11-29T10:20:07.890Z,62.84
2022-11-29T10:22:41.996Z,62.99
2022-11-29T10:25:11.393Z,63.42
2022-11-29T10:27:41.579Z,63.42
2022-11-29T10:30:15.138Z,62.71
2022-11-29T10:32:43.992Z,64.16
2022-11-29T10:35:14.850Z,63.46
2022-11-29T10:37:56.404Z,63.08
2022-11-29T10:40:34.804Z,63.51
2022-11-29T10:43:04.115Z,63.16
2022-11-29T10:45:34.072Z,63.01
2022-11-29T10:48:05.496Z,62.79
2022-11-29T10:50:35.417Z,63.11
2022-11-29T10:53:06.532Z,63.54
2022-11-29T10:55:37.939Z,62.36
2022-11-29T10:58:13.784Z,61.96
2022-11-29T11:00:46.615Z,61.28
2022-11-29T11:03:18.711Z,60.88
2022-11-29T11:05:59.018Z,60.97
2022-11-29T11:08:27.316Z,60.27
2022-11-29T11:11:01.217Z,60.34
2022-11-29T11:13:33.051Z,59.57
2022-11-29T11:16:10.030Z,58.96
2022-11-29T11:18:38.489Z,59.21
2022-11-29T11:21:09.833Z,59.59
2022-11-29T11:23:42.939Z,60.87
2022-11-29T11:26:13.138Z,60.87
2022-11-29T11:28:46.038Z,61.04
2022-11-29T11:31:14.635Z,61.61
2022-11-29T11:33:45.465Z,60.85
2022-11-29T11:36:14.984Z,61.32
2022-11-29T11:38:51.091Z,63.11
2022-11-29T11:41:22.494Z,63.90
2022-11-29T11:43:54.427Z,63.33
2022-11-29T11:46:22.645Z,63.08
2022-11-29T11:48:51.215Z,64.09
2022-11-29T11:51:24.026Z,63.66
2022-11-29T11:53:53.640Z,64.52
2022-11-29T11:56:21.790Z,64.59
2022-11-29T11:58:53.235Z,63.77
2022-11-29T12:01:37.826Z,64.05
2022-11-29T12:04:07.629Z,62.84
2022-11-29T12:06:43.296Z,62.17
2022-11-29T12:09:18.568Z,62.12
2022-11-29T12:11:52.514Z,62.00
2022-11-29T12:14:26.905Z,63.24
2022-11-29T12:17:03.730Z,63.52
2022-11-29T12:19:36.670Z,62.49
2022-11-29T12:22:08.341Z,61.26
2022-11-29T12:24:39.625Z,61.71
2022-11-29T12:27:11.002Z,63.43
2022-11-29T12:29:40.169Z,62.82
2022-11-29T12:32:18.591Z,63.07
2022-11-29T12:34:56.941Z,63.31
2022-11-29T12:37:32.227Z,63.18
2022-11-29T12:40:06.769Z,64.28
2022-11-29T12:42:45.802Z,64.93
2022-11-29T12:45:35.795Z,65.08
2022-11-29T12:48:11.952Z,64.90
2022-11-29T12:50:49.502Z,63.77
2022-11-29T12:53:29.161Z,62.02
2022-11-29T12:56:02.960Z,61.11
2022-11-29T12:58:41.273Z,60.83
2022-11-29T13:01:19.900Z,60.69
2022-11-29T13:03:53.481Z,61.97
2022-11-29T13:06:26.089Z,61.70
2022-11-29T13:09:03.644Z,61.73
2022-11-29T13:11:33.814Z,61.61
2022-11-29T13:14:34.839Z,62.37
2022-11-29T13:16:57.821Z,63.66
2022-11-29T13:19:33.058Z,64.15
2022-11-29T13:22:06.251Z,65.40
2022-11-29T13:24:42.518Z,64.38
2022-11-29T13:27:16.063Z,62.96
2022-11-29T13:29:44.268Z,64.74
2022-11-29T13:32:35.547Z,63.93
2022-11-29T13:35:08.489Z,64.03
2022-11-29T13:37:39.519Z,63.79
2022-11-29T13:40:22.952Z,63.46
2022-11-29T13:42:56.482Z,63.43
2022-11-29T13:45:27.914Z,65.59
2022-11-29T13:47:59.871Z,65.16
2022-11-29T13:50:39.867Z,63.59
2022-11-29T13:53:14.690Z,63.59
2022-11-29T13:55:47.212Z,64.94
2022-11-29T13:58:36.534Z,65.43
2022-11-29T14:01:08.352Z,65.13
2022-11-29T14:03:39.619Z,65.53
2022-11-29T14:06:15.493Z,66.77
2022-11-29T14:09:18.291Z,67.88
2022-11-29T14:11:50.044Z,66.95
2022-11-29T14:14:25.835Z,67.10
2022-11-29T14:16:56.029Z,67.95
2022-11-29T14:19:33.017Z,67.49
2022-11-29T14:22:28.677Z,66.53
2022-11-29T14:25:01.351Z,66.64
2022-11-29T14:27:56.213Z,66.22
2022-11-29T14:30:45.621Z,66.52
2022-11-29T14:33:22.743Z,67.86
2022-11-29T14:36:00.920Z,67.38
2022-11-29T14:38:31.627Z,66.89
2022-11-29T14:41:04.134Z,66.17
2022-11-29T14:43:34.300Z,66.24
2022-11-29T14:46:10.080Z,66.44
2022-11-29T14:48:38.205Z,66.22
2022-11-29T14:51:12.587Z,66.75
2022-11-29T14:53:42.144Z,66.62
2022-11-29T14:56:39.585Z,67.45
2022-11-29T14:59:38.947Z,68.18
2022-11-29T15:02:09.065Z,67.87
2022-11-29T15:04:38.019Z,67.41
2022-11-29T15:07:10.606Z,67.62
2022-11-29T15:09:39.599Z,67.70
2022-11-29T15:12:09.967Z,67.69
2022-11-29T15:14:46.934Z,67.73
2022-11-29T15:17:21.476Z,69.47
2022-11-29T15:20:07.559Z,69.87
2022-11-29T15:22:46.167Z,69.20
2022-11-29T15:25:18.118Z,69.03
2022-11-29T15:27:53.910Z,70.44
2022-11-29T15:30:28.811Z,70.30
2022-11-29T15:32:56.704Z,69.50
2022-11-29T15:35:24.640Z,69.50
2022-11-29T15:37:54.681Z,69.86
2022-11-29T15:40:24.710Z,70.76
2022-11-29T15:42:55.136Z,70.44
2022-11-29T15:45:28.952Z,70.75
2022-11-29T15:47:58.718Z,70.67
2022-11-29T15:50:27.581Z,71.53
2022-11-29T15:52:59.383Z,72.15
2022-11-29T15:55:28.544Z,71.74
2022-11-29T15:57:59.895Z,72.00
2022-11-29T16:00:32.834Z,72.26
2022-11-29T16:03:02.080Z,73.32
2022-11-29T16:05:32.972Z,74.58
2022-11-29T16:08:04.467Z,74.05
2022-11-29T16:10:37.024Z,73.60
2022-11-29T16:13:07.597Z,73.78
2022-11-29T16:15:37.618Z,74.24
2022-11-29T16:18:06.475Z,73.81
2022-11-29T16:20:34.384Z,72.93
2022-11-29T16:23:21.452Z,71.21
2022-11-29T16:25:57.524Z,70.51
2022-11-29T16:28:27.000Z,71.15
2022-11-29T16:30:54.856Z,70.91
2022-11-29T16:33:24.838Z,71.05
2022-11-29T16:35:53.028Z,70.33
2022-11-29T16:38:23.453Z,70.20
2022-11-29T16:41:06.351Z,71.75
2022-11-29T16:43:48.591Z,72.30
2022-11-29T16:46:30.078Z,71.27
2022-11-29T16:49:00.755Z,70.62
2022-11-29T16:51:37.313Z,70.43
2022-11-29T16:54:27.861Z,71.24
2022-11-29T16:56:57.228Z,72.46
2022-11-29T16:59:28.236Z,72.36
2022-11-29T17:01:57.143Z,71.66
2022-11-29T17:04:25.491Z,73.03
2022-11-29T17:06:53.995Z,72.95
2022-11-29T17:09:24.882Z,72.32
2022-11-29T17:11:54.333Z,71.37
2022-11-29T17:14:22.179Z,71.54
2022-11-29T17:16:50.439Z,71.19
2022-11-29T17:19:19.665Z,70.88
2022-11-29T17:21:47.535Z,71.07
2022-11-29T17:24:16.654Z,70.79
2022-11-29T17:26:45.002Z,70.06
2022-11-29T17:29:15.237Z,70.22
2022-11-29T17:31:44.620Z,71.20
2022-11-29T17:34:12.776Z,71.07
2022-11-29T17:36:40.559Z,70.34
2022-11-29T17:39:09.133Z,70.56
2022-11-29T17:41:36.911Z,70.23
2022-11-29T17:44:05.305Z,69.81
2022-11-29T17:46:35.870Z,69.37
2022-11-29T17:49:05.409Z,69.87
2022-11-29T17:54:22.303Z,69.14
2022-11-29T17:56:50.553Z,69.42
2022-11-29T17:59:18.470Z,69.64
2022-11-29T18:01:48.073Z,69.40
2022-11-29T18:04:16.124Z,69.40
2022-11-29T18:06:45.752Z,68.98
2022-11-29T18:09:13.838Z,68.92
2022-11-29T18:11:48.057Z,69.70
2022-11-29T18:14:17.994Z,69.37
2022-11-29T18:16:47.273Z,69.70
2022-11-29T18:19:17.595Z,71.71
2022-11-29T18:21:45.378Z,73.23
2022-11-29T18:24:13.424Z,74.34
2022-11-29T18:26:41.505Z,73.24
2022-11-29T18:29:09.912Z,73.74
2022-11-29T18:31:38.700Z,73.88
2022-11-29T18:34:09.909Z,73.91
2022-11-29T18:36:40.064Z,72.83
2022-11-29T18:39:09.981Z,71.56
2022-11-29T18:41:38.689Z,71.45
2022-11-29T18:44:07.928Z,71.12
2022-11-29T18:46:37.309Z,71.42
2022-11-29T18:49:08.118Z,70.90
2022-11-29T18:51:36.772Z,70.49
2022-11-29T18:54:05.079Z,69.93
2022-11-29T18:56:35.508Z,70.06
2022-11-29T18:59:05.624Z,70.72
2022-11-29T19:01:35.305Z,71.77
2022-11-29T19:04:03.301Z,72.63
2022-11-29T19:06:39.344Z,72.83
2022-11-29T19:09:09.802Z,72.00
2022-11-29T19:11:37.666Z,70.99
2022-11-29T19:14:11.081Z,71.18
2022-11-29T19:16:40.606Z,70.99
2022-11-29T19:19:08.465Z,70.56
2022-11-29T19:21:39.645Z,71.74
2022-11-29T19:24:13.612Z,71.04
2022-11-29T19:26:42.946Z,70.99
2022-11-29T19:29:11.015Z,70.48
2022-11-29T19:31:39.402Z,70.73
2022-11-29T19:34:07.390Z,70.71
2022-11-29T19:36:37.031Z,71.32
2022-11-29T19:39:06.253Z,72.86
2022-11-29T19:41:35.228Z,73.18
2022-11-29T19:44:05.085Z,73.21
2022-11-29T19:46:34.611Z,72.30
2022-11-29T19:49:03.332Z,72.15
2022-11-29T19:51:31.811Z,72.04
2022-11-29T19:54:00.877Z,70.73
2022-11-29T19:56:31.152Z,70.86
2022-11-29T19:58:59.788Z,70.92
2022-11-29T20:01:35.941Z,72.56
2022-11-29T20:04:07.576Z,72.82
2022-11-29T20:06:35.847Z,73.56
2022-11-29T20:09:04.020Z,74.04
2022-11-29T20:11:33.179Z,72.85
2022-11-29T20:14:02.819Z,72.09
2022-11-29T20:16:31.472Z,71.38
2022-11-29T20:18:59.874Z,71.15
2022-11-29T20:21:29.537Z,71.46
2022-11-29T20:23:58.918Z,72.27
2022-11-29T20:26:27.589Z,73.29
2022-11-29T20:28:56.706Z,72.64
2022-11-29T20:31:24.655Z,73.90
2022-11-29T20:33:53.931Z,74.31
2022-11-29T20:36:31.742Z,74.88
2022-11-29T20:39:04.936Z,75.74
2022-11-29T20:41:36.951Z,74.82
2022-11-29T20:44:06.588Z,74.07
2022-11-29T20:46:34.687Z,74.44
2022-11-29T20:49:06.720Z,74.59
2022-11-29T20:51:41.123Z,74.61
2022-11-29T20:54:10.861Z,74.35
2022-11-29T20:56:38.694Z,75.95
2022-11-29T20:59:07.767Z,75.45
2022-11-29T21:01:35.638Z,74.88
2022-11-29T21:04:03.479Z,74.27
2022-11-29T21:06:34.283Z,75.76
2022-11-29T21:09:02.132Z,75.83
2022-11-29T21:11:30.127Z,76.97
2022-11-29T21:13:58.297Z,77.30
2022-11-29T21:16:30.298Z,76.53
2022-11-29T21:19:01.191Z,75.45
2022-11-29T21:21:33.093Z,74.64
2022-11-29T21:24:04.668Z,75.12
2022-11-29T21:26:41.368Z,75.66
2022-11-29T21:29:16.216Z,75.14
2022-11-29T21:31:46.130Z,75.03
2022-11-29T21:34:14.286Z,74.72
2022-11-29T21:36:42.275Z,75.14
2022-11-29T21:39:12.640Z,75.26
2022-11-29T21:41:40.744Z,75.77
2022-11-29T21:44:08.871Z,75.53
2022-11-29T21:46:36.858Z,74.85
2022-11-29T21:49:06.443Z,74.71
2022-11-29T21:51:34.294Z,74.54
2022-11-29T21:54:02.591Z,74.53
2022-11-29T21:56:30.481Z,76.07
2022-11-29T21:58:58.257Z,76.34
2022-11-29T22:01:27.517Z,76.14
2022-11-29T22:03:55.506Z,75.52
2022-11-29T22:06:26.117Z,75.80
2022-11-29T22:08:53.989Z,76.13
2022-11-29T22:11:31.447Z,76.74
2022-11-29T22:14:15.578Z,76.54
2022-11-29T22:16:44.591Z,77.42
2022-11-29T22:19:14.022Z,77.13
2022-11-29T22:21:44.588Z,76.13
2022-11-29T22:24:13.315Z,75.13
2022-11-29T22:26:42.632Z,74.68
2022-11-29T22:29:11.443Z,74.64
2022-11-29T22:31:39.249Z,74.11
2022-11-29T22:34:07.167Z,73.26
2022-11-29T22:36:35.842Z,72.36
2022-11-29T22:39:05.712Z,72.28
2022-11-29T22:41:34.205Z,72.85
2022-11-29T22:44:02.052Z,72.67
2022-11-29T22:46:30.392Z,73.63
2022-11-29T22:49:00.438Z,74.58
2022-11-29T22:51:30.396Z,74.53
2022-11-29T22:53:59.377Z,73.57
2022-11-29T22:56:30.253Z,73.36
2022-11-29T22:58:59.029Z,73.48
2022-11-29T23:01:28.242Z,74.90
2022-11-29T23:03:57.895Z,76.08
2022-11-29T23:06:26.880Z,77.57
2022-11-29T23:08:56.232Z,79.12
2022-11-29T23:11:26.075Z,78.82
2022-11-29T23:13:56.236Z,78.27
2022-11-29T23:16:25.506Z,78.53
2022-11-29T23:18:54.281Z,79.09
2022-11-29T23:21:23.902Z,79.51
2022-11-29T23:23:56.391Z,77.96
2022-11-29T23:26:26.607Z,76.19
2022-11-29T23:28:56.191Z,75.10
2022-11-29T23:31:24.725Z,75.38
2022-11-29T23:33:52.771Z,75.19
2022-11-29T23:36:20.907Z,75.44
2022-11-29T23:38:48.977Z,77.76
2022-11-29T23:41:16.773Z,78.11
2022-11-29T23:43:44.567Z,77.63
2022-11-29T23:46:16.332Z,78.16
2022-11-29T23:48:44.742Z,78.80
2022-11-29T23:51:13.182Z,79.76
2022-11-29T23:53:41.183Z,79.70
2022-11-29T23:56:11.641Z,78.74
2022-11-29T23:58:39.430Z,77.38
